createdAt,value
2022-12-08T00:01:21.107Z,17.33
2022-12-08T00:11:45.579Z,15.00
2022-12-08T00:22:08.340Z,13.07
2022-12-08T00:32:31.612Z,18.38
2022-12-08T00:42:53.134Z,32.22
2022-12-08T00:53:15.964Z,18.20
2022-12-08T01:03:37.388Z,20.38
2022-12-08T01:14:00.628Z,2.95
2022-12-08T01:24:22.617Z,4.97
2022-12-08T01:34:45.779Z,12.82
2022-12-08T01:45:08.977Z,19.92
2022-12-08T01:55:36.368Z,24.58
2022-12-08T02:05:59.385Z,23.23
2022-12-08T02:16:36.366Z,18.45
2022-12-08T02:27:29.146Z,17.75
2022-12-08T02:38:00.554Z,12.10
2022-12-08T02:48:22.488Z,17.60
2022-12-08T02:59:02.487Z,12.38
2022-12-08T03:09:34.885Z,15.43
2022-12-08T03:20:01.115Z,13.88
2022-12-08T03:30:23.031Z,13.65
2022-12-08T03:41:07.920Z,23.80
2022-12-08T03:51:29.748Z,12.02
2022-12-08T04:01:52.873Z,19.80
2022-12-08T04:12:14.513Z,25.25
2022-12-08T04:22:37.353Z,20.42
2022-12-08T04:32:58.903Z,25.27
2022-12-08T04:43:22.021Z,38.35
2022-12-08T04:53:46.754Z,44.13
2022-12-08T05:04:10.297Z,49.53
2022-12-08T05:14:32.549Z,35.03
2022-12-08T05:24:55.504Z,56.08
2022-12-08T05:35:17.116Z,25.17
2022-12-08T05:45:40.130Z,58.40
2022-12-08T05:56:01.397Z,40.08
2022-12-08T06:06:24.025Z,32.00
2022-12-08T06:16:45.434Z,67.28
2022-12-08T06:27:08.262Z,60.30
2022-12-08T06:37:30.029Z,36.83
2022-12-08T06:47:53.049Z,37.70
2022-12-08T06:58:15.788Z,51.75
2022-12-08T07:08:38.865Z,35.85
2022-12-08T07:19:00.900Z,35.85
2022-12-08T07:29:26.321Z,37.42
2022-12-08T07:39:47.786Z,49.20
2022-12-08T07:50:11.127Z,35.33
2022-12-08T08:00:32.959Z,65.03
2022-12-08T08:10:56.238Z,46.97
2022-12-08T08:32:01.574Z,75.93
2022-12-08T08:42:23.226Z,71.88
2022-12-08T08:52:46.038Z,53.63
2022-12-08T09:03:07.570Z,42.83
2022-12-08T09:13:30.758Z,64.57
2022-12-08T09:23:54.305Z,59.45
2022-12-08T09:34:17.113Z,36.53
2022-12-08T09:44:57.390Z,67.63
2022-12-08T09:55:26.097Z,40.08
2022-12-08T10:05:56.435Z,40.15
2022-12-08T10:16:29.497Z,34.05
2022-12-08T10:27:16.835Z,35.35
2022-12-08T10:37:40.507Z,48.92
2022-12-08T10:48:04.374Z,42.83
2022-12-08T10:58:29.896Z,36.88
2022-12-08T11:08:54.181Z,34.38
2022-12-08T11:19:19.504Z,37.08
2022-12-08T11:29:41.122Z,29.67
2022-12-08T11:40:08.113Z,47.53
2022-12-08T11:50:36.852Z,37.65
2022-12-08T12:01:00.130Z,48.35
2022-12-08T12:11:47.068Z,35.78
2022-12-08T12:22:16.497Z,37.08
2022-12-08T12:32:46.805Z,29.45
2022-12-08T12:43:30.111Z,28.38
2022-12-08T12:53:52.139Z,29.35
2022-12-08T13:04:16.221Z,36.83
2022-12-08T13:14:42.164Z,32.65
2022-12-08T13:25:37.193Z,43.50
2022-12-08T13:36:11.759Z,50.58
2022-12-08T13:57:28.923Z,50.78
2022-12-08T14:07:54.579Z,47.28
2022-12-08T14:18:26.769Z,40.73
2022-12-08T14:28:50.570Z,38.72
2022-12-08T14:39:13.742Z,43.88
2022-12-08T14:49:36.891Z,57.58
2022-12-08T15:00:09.195Z,6.93
2022-12-08T15:10:32.051Z,22.13
2022-12-08T15:20:58.107Z,20.65
2022-12-08T15:31:20.277Z,20.13
2022-12-08T15:41:43.311Z,19.00
2022-12-08T15:52:11.624Z,4.60
2022-12-08T16:03:04.321Z,26.13
2022-12-08T16:13:56.856Z,33.03
2022-12-08T16:24:18.861Z,22.27
2022-12-08T16:34:40.482Z,35.40
2022-12-08T16:45:07.953Z,31.83
2022-12-08T16:55:30.198Z,34.03
2022-12-08T17:05:53.509Z,27.08
2022-12-08T17:16:17.666Z,34.78
2022-12-08T17:26:40.664Z,47.75
2022-12-08T17:37:02.637Z,36.83
2022-12-08T17:47:25.655Z,28.13
2022-12-08T17:57:47.441Z,42.20
2022-12-08T18:08:10.993Z,43.63
2022-12-08T18:18:32.767Z,43.70
2022-12-08T18:28:55.997Z,36.70
2022-12-08T18:39:22.593Z,52.28
2022-12-08T18:49:45.641Z,54.37
2022-12-08T19:00:10.677Z,39.85
2022-12-08T19:10:37.053Z,63.50
2022-12-08T19:20:59.604Z,64.90
2022-12-08T19:31:22.384Z,77.47
2022-12-08T19:42:01.303Z,77.55
2022-12-08T19:52:24.588Z,58.25
2022-12-08T20:02:46.340Z,78.97
2022-12-08T20:13:27.915Z,71.22
2022-12-08T20:23:49.813Z,82.65
2022-12-08T20:34:16.180Z,79.35
2022-12-08T20:44:43.150Z,43.15
2022-12-08T20:55:07.886Z,62.00
2022-12-08T21:05:29.730Z,54.67
2022-12-08T21:15:53.358Z,44.70
2022-12-08T21:26:16.644Z,56.72
2022-12-08T21:36:39.801Z,50.00
2022-12-08T21:47:01.680Z,67.68
2022-12-08T21:57:24.620Z,86.50
2022-12-08T22:07:46.216Z,74.10
2022-12-08T22:18:09.305Z,98.47
2022-12-08T22:28:33.535Z,61.20
2022-12-08T22:38:57.077Z,93.82
2022-12-08T22:49:19.006Z,95.80
2022-12-08T22:59:41.984Z,76.55
2022-12-08T23:10:04.037Z,71.75
2022-12-08T23:20:27.622Z,64.75
2022-12-08T23:30:49.276Z,79.32
2022-12-08T23:41:14.247Z,62.92
2022-12-08T23:51:36.403Z,145.63
